Time;durP1;ratioP1;P1;durP2;ratioP2;P2;SDS_P1;SDS_P2;PMS_P1;PMS_P2;Temp;Humidity;BMP_temperature;BMP_pressure;BME280_temperature;BME280_humidity;BME280_pressure;Samples;Min_cycle;Max_cycle;Signal;HPM_P1;HPM_P2
2023/08/04 00:01:35;;;;;;;16.95;10.25;;;;;;;23.02;85.90;98831.59;5069436;28;20556;-49
2023/08/04 00:04:01;;;;;;;14.40;10.25;;;;;;;22.90;85.43;98795.69;5068984;28;20123;-49
2023/08/04 00:06:27;;;;;;;15.57;10.73;;;;;;;22.86;85.25;98797.81;5079653;28;20566;-51
2023/08/04 00:08:53;;;;;;;16.00;10.88;;;;;;;23.04;85.27;98832.25;5069340;28;20044;-52
2023/08/04 00:11:19;;;;;;;18.25;11.13;;;;;;;23.01;85.57;98824.63;5069384;28;20479;-48
2023/08/04 00:13:44;;;;;;;18.42;11.40;;;;;;;22.95;85.79;98826.06;5065655;28;20044;-49
2023/08/04 00:16:10;;;;;;;14.93;11.10;;;;;;;22.70;86.11;98789.66;5077907;28;20040;-53
2023/08/04 00:18:36;;;;;;;14.57;11.02;;;;;;;22.84;86.24;98828.91;5068470;28;20139;-52
2023/08/04 00:21:03;;;;;;;18.50;11.60;;;;;;;22.80;86.44;98825.75;5071888;28;20056;-51
2023/08/04 00:23:29;;;;;;;17.67;10.27;;;;;;;22.79;86.27;98829.38;5068891;28;20032;-53
2023/08/04 00:25:55;;;;;;;15.88;10.68;;;;;;;22.61;86.32;98804.63;5068367;28;20678;-45
2023/08/04 00:28:22;;;;;;;19.42;10.88;;;;;;;22.77;86.25;98841.09;5069395;28;20068;-48
2023/08/04 00:30:48;;;;;;;16.13;10.45;;;;;;;22.78;85.61;98838.31;5064623;28;20094;-50
2023/08/04 00:33:15;;;;;;;16.20;10.30;;;;;;;22.65;85.14;98821.09;5072296;28;20041;-49
2023/08/04 00:35:41;;;;;;;17.98;11.23;;;;;;;22.77;85.17;98841.09;5062818;28;20068;-49
2023/08/04 00:38:06;;;;;;;17.20;10.90;;;;;;;22.75;85.28;98838.63;5067685;28;20094;-48
2023/08/04 00:40:32;;;;;;;19.25;10.55;;;;;;;22.65;85.24;98832.53;5050193;28;20697;-50
2023/08/04 00:42:58;;;;;;;16.45;11.50;;;;;;;22.47;85.56;98804.31;5050473;28;20064;-51
2023/08/04 00:45:25;;;;;;;14.13;10.23;;;;;;;22.46;86.26;98805.28;5059515;28;20131;-50
2023/08/04 00:47:52;;;;;;;18.38;11.60;;;;;;;22.61;87.00;98835.63;5064444;28;20041;-49
2023/08/04 00:50:19;;;;;;;13.93;10.82;;;;;;;22.61;87.02;98832.97;5058462;28;20067;-51
2023/08/04 00:52:45;;;;;;;17.27;11.43;;;;;;;22.62;86.51;98834.63;5052165;28;20059;-48
2023/08/04 00:55:13;;;;;;;15.10;11.65;;;;;;;22.57;87.20;98844.84;5061496;28;20135;-48
2023/08/04 00:57:39;;;;;;;18.92;11.80;;;;;;;22.49;88.10;98832.34;5037113;28;20065;-50
2023/08/04 01:00:07;;;;;;;19.77;12.00;;;;;;;22.44;88.30;98841.72;5057546;28;20075;-48
2023/08/04 01:02:33;;;;;;;16.40;11.38;;;;;;;22.47;88.46;98838.75;5068056;28;20405;-49
2023/08/04 01:05:01;;;;;;;16.75;11.48;;;;;;;22.48;88.12;98830.66;5063269;28;20041;-52
2023/08/04 01:07:32;;;;;;;12.35;10.85;;;;;;;22.45;88.07;98828.34;5047295;28;20048;-50
2023/08/04 01:10:07;;;;;;;19.67;11.60;;;;;;;22.46;88.53;98831.78;5048707;28;20040;-51
2023/08/04 01:13:08;;;;;;;16.33;11.43;;;;;;;22.48;88.79;98835.13;5049432;28;20532;-49
2023/08/04 01:15:35;;;;;;;14.00;11.13;;;;;;;22.50;88.44;98836.66;5024562;28;20131;-52
2023/08/04 01:18:01;;;;;;;15.93;12.00;;;;;;;22.52;88.94;98837.34;5067441;28;20047;-48
2023/08/04 01:20:27;;;;;;;16.55;10.98;;;;;;;22.40;88.22;98801.44;5051318;28;20048;-51
2023/08/04 01:22:54;;;;;;;17.88;11.23;;;;;;;22.47;87.65;98809.63;5061698;28;20455;-52
2023/08/04 01:25:33;;;;;;;17.63;11.77;;;;;;;22.55;87.67;98821.16;5070142;28;20093;-48
2023/08/04 01:28:09;;;;;;;12.55;10.85;;;;;;;22.59;86.81;98813.72;5041396;28;20523;-52
2023/08/04 01:30:37;;;;;;;15.70;11.02;;;;;;;22.79;86.41;98833.84;5064154;28;20033;-50
2023/08/04 01:33:02;;;;;;;17.75;10.60;;;;;;;22.85;86.26;98832.41;5083182;28;20072;-51
2023/08/04 01:35:29;;;;;;;17.67;10.88;;;;;;;22.86;86.37;98837.56;5067862;28;20066;-51
2023/08/04 01:37:55;;;;;;;21.30;11.63;;;;;;;22.74;86.41;98805.16;5050289;28;20520;-51
2023/08/04 01:40:21;;;;;;;15.25;11.27;;;;;;;22.91;86.14;98832.66;5068500;28;20571;-49
2023/08/04 01:42:47;;;;;;;15.10;11.15;;;;;;;22.94;86.24;98834.16;5067420;28;20048;-49
2023/08/04 01:45:13;;;;;;;12.52;11.02;;;;;;;22.93;86.11;98832.47;5059293;28;20401;-48
2023/08/04 01:47:39;;;;;;;13.50;10.93;;;;;;;22.97;85.48;98844.47;5065938;28;20047;-50
2023/08/04 01:50:08;;;;;;;15.70;11.35;;;;;;;22.80;85.05;98822.25;5078026;28;20039;-51
2023/08/04 01:52:34;;;;;;;16.35;11.80;;;;;;;22.98;84.63;98848.75;5065995;28;20080;-50
2023/08/04 01:55:01;;;;;;;13.65;10.63;;;;;;;22.98;84.32;98851.41;5066413;28;20457;-51
2023/08/04 01:57:28;;;;;;;16.95;11.27;;;;;;;22.94;84.10;98845.59;5065012;28;20072;-49
2023/08/04 01:59:54;;;;;;;16.88;11.75;;;;;;;23.02;83.92;98844.84;5045155;28;20067;-50
2023/08/04 02:02:19;;;;;;;17.58;11.75;;;;;;;22.91;84.08;98813.25;5049973;28;20146;-54
2023/08/04 02:04:45;;;;;;;15.68;11.18;;;;;;;23.08;84.19;98838.94;5065044;28;20516;-50
2023/08/04 02:07:11;;;;;;;17.45;11.13;;;;;;;23.09;83.87;98844.06;5071514;28;20070;-52
2023/08/04 02:09:37;;;;;;;13.88;10.90;;;;;;;23.13;84.11;98841.97;5070486;28;20044;-48
2023/08/04 02:12:03;;;;;;;15.25;11.52;;;;;;;23.12;84.01;98842.94;5071662;28;20064;-51
2023/08/04 02:14:30;;;;;;;20.70;12.15;;;;;;;23.02;84.47;98831.59;5069613;28;20052;-51
2023/08/04 02:16:56;;;;;;;17.15;12.13;;;;;;;23.02;84.67;98827.13;5051537;28;20043;-47
2023/08/04 02:19:39;;;;;;;18.52;11.82;;;;;;;23.17;84.57;98861.88;5059791;28;20500;-47
2023/08/04 02:22:05;;;;;;;16.23;10.95;;;;;;;23.18;84.49;98855.59;5072617;28;20043;-53
2023/08/04 02:24:31;;;;;;;13.95;11.07;;;;;;;23.16;83.89;98849.59;5070827;28;20431;-51
2023/08/04 02:26:57;;;;;;;17.05;11.05;;;;;;;23.23;83.45;98861.28;5078243;28;20036;-52
2023/08/04 02:29:23;;;;;;;15.23;10.90;;;;;;;23.27;83.61;98856.50;5087908;28;20119;-51
2023/08/04 02:31:50;;;;;;;18.63;11.55;;;;;;;23.30;83.15;98862.31;5071184;28;20427;-51
2023/08/04 02:34:16;;;;;;;16.08;11.55;;;;;;;23.19;83.10;98831.56;5064639;28;20037;-50
2023/08/04 02:36:42;;;;;;;16.65;11.18;;;;;;;23.38;82.98;98861.56;5066537;28;20105;-52
2023/08/04 02:39:07;;;;;;;19.10;11.30;;;;;;;23.27;82.95;98841.41;5068392;28;20097;-49
2023/08/04 02:41:34;;;;;;;13.55;10.88;;;;;;;23.39;82.04;98858.75;5068923;28;20044;-49
2023/08/04 02:44:02;;;;;;;13.15;11.32;;;;;;;23.42;81.81;98861.09;5068853;28;20047;-50
2023/08/04 02:46:28;;;;;;;15.82;11.45;;;;;;;23.45;81.89;98863.47;5066120;28;20119;-48
2023/08/04 02:48:55;;;;;;;17.40;11.40;;;;;;;23.33;82.44;98834.66;5078101;28;20044;-48
2023/08/04 02:51:21;;;;;;;17.13;10.65;;;;;;;23.50;82.66;98865.69;5068875;28;20609;-51
2023/08/04 02:53:48;;;;;;;13.95;10.80;;;;;;;23.53;82.65;98865.34;5071039;28;20227;-51
2023/08/04 02:56:16;;;;;;;18.67;11.82;;;;;;;23.55;82.64;98863.41;5069523;28;20041;-50
2023/08/04 02:58:43;;;;;;;17.73;12.20;;;;;;;23.60;82.20;98869.06;5073180;28;20531;-48
2023/08/04 03:01:09;;;;;;;18.25;11.05;;;;;;;23.62;82.07;98869.72;5089583;28;20040;-52
2023/08/04 03:03:35;;;;;;;19.88;12.00;;;;;;;23.50;81.40;98858.53;5059999;28;20090;-52
2023/08/04 03:06:02;;;;;;;24.15;11.80;;;;;;;23.61;81.21;98874.19;5050565;28;20041;-48
2023/08/04 03:08:28;;;;;;;20.83;10.90;;;;;;;23.61;80.79;98860.94;5068373;28;20079;-48
2023/08/04 03:10:54;;;;;;;17.92;11.25;;;;;;;23.60;80.42;98867.22;5079326;28;20511;-47
2023/08/04 03:13:21;;;;;;;23.25;11.05;;;;;;;23.62;80.29;98867.06;5089586;28;20044;-48
2023/08/04 03:15:57;;;;;;;16.73;11.55;;;;;;;23.39;80.24;98831.41;5083946;28;20463;-48
2023/08/04 03:18:23;;;;;;;13.40;10.70;;;;;;;23.55;80.71;98869.50;5070663;28;20036;-47
2023/08/04 03:20:49;;;;;;;13.43;11.18;;;;;;;23.52;80.29;98875.13;5050228;28;20139;-48
2023/08/04 03:23:15;;;;;;;17.75;11.50;;;;;;;23.49;80.14;98878.09;5061000;28;20044;-47
2023/08/04 03:25:42;;;;;;;20.60;16.75;;;;;;;23.46;80.36;98877.56;5070253;28;20041;-51
2023/08/04 03:28:08;;;;;;;14.52;10.70;;;;;;;23.45;80.67;98882.03;5071561;28;20037;-49
2023/08/04 03:30:34;;;;;;;12.70;10.30;;;;;;;23.44;80.50;98890.13;5089172;28;20568;-52
2023/08/04 03:32:59;;;;;;;17.48;10.65;;;;;;;23.45;80.34;98884.69;5089177;28;20040;-51
2023/08/04 03:35:25;;;;;;;13.25;11.13;;;;;;;23.52;80.14;98888.41;5075913;28;20068;-52
2023/08/04 03:37:51;;;;;;;16.30;10.93;;;;;;;23.62;79.67;98886.50;5070267;28;20039;-50
2023/08/04 03:40:17;;;;;;;13.75;10.35;;;;;;;23.71;79.20;98876.75;5057956;28;20048;-53
2023/08/04 03:42:43;;;;;;;16.00;10.73;;;;;;;23.88;78.74;98883.84;5070104;28;20043;-50
2023/08/04 03:45:10;;;;;;;11.80;10.25;;;;;;;23.97;77.78;98890.88;5068210;28;20419;-50
2023/08/04 03:47:36;;;;;;;12.20;10.50;;;;;;;24.05;77.37;98888.28;5053258;28;20427;-49
2023/08/04 03:50:06;;;;;;;15.30;11.35;;;;;;;23.96;76.94;98862.66;5089967;28;20039;-48
2023/08/04 03:52:32;;;;;;;16.52;11.25;;;;;;;24.13;76.61;98894.63;5089312;28;20067;-51
2023/08/04 03:54:59;;;;;;;13.05;10.50;;;;;;;24.10;76.39;98902.91;5076520;28;20032;-52
2023/08/04 03:57:25;;;;;;;15.05;10.40;;;;;;;24.12;76.56;98907.06;5068460;28;20047;-50
2023/08/04 03:59:52;;;;;;;12.90;10.32;;;;;;;24.03;76.05;98878.78;5051426;28;20057;-48
2023/08/04 04:02:19;;;;;;;15.65;10.25;;;;;;;24.28;75.77;98906.38;5052192;28;20033;-47
2023/08/04 04:04:45;;;;;;;13.27;10.25;;;;;;;24.31;75.60;98914.84;5068656;28;20141;-49
2023/08/04 04:07:10;;;;;;;12.68;10.73;;;;;;;24.32;75.05;98913.84;5068519;28;20527;-48
2023/08/04 04:09:36;;;;;;;14.43;10.40;;;;;;;24.10;75.46;98889.63;5069246;28;20143;-46
2023/08/04 04:12:02;;;;;;;18.02;10.52;;;;;;;24.19;75.63;98907.28;5067762;28;20039;-51
2023/08/04 04:14:29;;;;;;;14.05;10.20;;;;;;;24.13;75.81;98907.91;5049193;28;20048;-52
2023/08/04 04:16:56;;;;;;;13.55;10.13;;;;;;;24.11;76.16;98920.50;5031335;28;20036;-49
2023/08/04 04:19:22;;;;;;;13.35;10.57;;;;;;;24.19;76.04;98928.53;5071209;28;20515;-48
2023/08/04 04:21:48;;;;;;;14.57;10.50;;;;;;;24.08;76.45;98933.09;5080437;28;20040;-49
2023/08/04 04:24:14;;;;;;;14.60;11.20;;;;;;;24.05;76.61;98932.59;5069056;28;20518;-51
2023/08/04 04:26:40;;;;;;;13.18;10.43;;;;;;;23.84;76.76;98906.38;5068425;28;20044;-54
2023/08/04 04:29:06;;;;;;;14.05;10.73;;;;;;;23.88;77.30;98917.53;5067687;28;20401;-50
2023/08/04 04:31:31;;;;;;;16.27;11.57;;;;;;;23.78;77.63;98904.34;5068813;28;20126;-52
2023/08/04 04:33:57;;;;;;;12.13;10.27;;;;;;;23.76;77.68;98905.50;5049780;28;20153;-51
2023/08/04 04:36:23;;;;;;;14.52;11.02;;;;;;;23.67;78.02;98899.28;5060080;28;20055;-48
2023/08/04 04:38:49;;;;;;;12.43;10.23;;;;;;;23.79;78.03;98914.00;5056184;28;20033;-47
2023/08/04 04:41:15;;;;;;;13.77;10.55;;;;;;;23.75;78.28;98909.16;5058177;28;20595;-52
2023/08/04 04:43:41;;;;;;;15.73;10.98;;;;;;;23.57;78.42;98899.38;5066751;28;20041;-48
2023/08/04 04:46:06;;;;;;;16.38;11.00;;;;;;;23.70;78.58;98922.06;5065769;28;20405;-48
2023/08/04 04:48:32;;;;;;;12.73;11.18;;;;;;;23.61;78.77;98907.88;5050043;28;20040;-53
2023/08/04 04:50:58;;;;;;;12.32;10.07;;;;;;;23.75;78.88;98920.59;5068957;28;20048;-49
2023/08/04 04:53:24;;;;;;;15.18;10.95;;;;;;;23.64;79.15;98907.56;5068918;28;20041;-49
2023/08/04 04:55:50;;;;;;;12.57;10.45;;;;;;;23.57;78.67;98893.25;5068599;28;20140;-50
2023/08/04 04:58:16;;;;;;;13.02;10.57;;;;;;;23.77;78.58;98934.53;5066916;28;20048;-51
2023/08/04 05:00:42;;;;;;;12.82;10.18;;;;;;;23.81;78.49;98922.66;5070243;28;20505;-51
2023/08/04 05:03:10;;;;;;;11.70;10.55;;;;;;;23.85;78.35;98908.06;5072932;28;20409;-52
2023/08/04 05:05:38;;;;;;;14.35;10.80;;;;;;;23.92;77.99;98916.22;5068792;28;20055;-50
2023/08/04 05:08:05;;;;;;;12.15;10.95;;;;;;;23.96;77.64;98905.16;5066726;28;20052;-48
2023/08/04 05:10:31;;;;;;;14.90;10.45;;;;;;;24.08;77.28;98903.88;5079457;28;20400;-49
2023/08/04 05:12:58;;;;;;;12.75;9.82;;;;;;;24.02;76.99;98882.44;5087628;28;20265;-50
2023/08/04 05:15:24;;;;;;;14.80;10.00;;;;;;;24.30;76.57;98902.53;5048942;28;20041;-50
2023/08/04 05:17:49;;;;;;;11.88;10.57;;;;;;;24.41;76.48;98906.75;5065568;28;20480;-50
2023/08/04 05:20:15;;;;;;;14.50;10.13;;;;;;;24.55;75.74;98902.66;5067145;28;20087;-49
2023/08/04 05:22:41;;;;;;;15.95;10.27;;;;;;;24.65;75.23;98890.88;5064383;28;20048;-52
2023/08/04 05:25:08;;;;;;;14.20;9.70;;;;;;;24.59;74.64;98883.59;5065718;28;20053;-47
2023/08/04 05:27:34;;;;;;;13.45;9.80;;;;;;;24.70;73.85;98883.28;5043278;28;20049;-49
2023/08/04 05:30:01;;;;;;;11.52;9.82;;;;;;;24.66;73.22;98871.28;5067202;28;20037;-52
2023/08/04 05:32:35;;;;;;;11.30;9.38;;;;;;;24.94;72.42;98898.50;5067113;28;20040;-53
2023/08/04 05:35:02;;;;;;;12.55;9.77;;;;;;;25.05;72.73;98887.53;5033108;28;20138;-51
2023/08/04 05:37:33;;;;;;;11.90;10.13;;;;;;;25.22;72.34;98891.06;5070920;28;20044;-51
2023/08/04 05:40:00;;;;;;;11.02;9.10;;;;;;;25.35;71.51;98895.88;5074061;28;20048;-51
2023/08/04 05:42:26;;;;;;;13.65;9.20;;;;;;;25.39;70.38;98900.69;5084778;28;20410;-50
2023/08/04 05:44:52;;;;;;;10.10;8.90;;;;;;;25.52;70.13;98894.91;5084964;28;20040;-46
2023/08/04 05:47:19;;;;;;;14.35;8.90;;;;;;;25.56;69.70;98874.94;5070608;28;20037;-53
2023/08/04 05:49:47;;;;;;;13.03;9.17;;;;;;;25.83;68.81;98911.03;5073327;28;20181;-48
2023/08/04 05:52:13;;;;;;;14.93;8.67;;;;;;;25.91;68.18;98911.06;5070774;28;20491;-52
2023/08/04 05:54:39;;;;;;;13.93;9.13;;;;;;;26.01;67.36;98901.03;5071786;28;20386;-50
2023/08/04 05:57:06;;;;;;;14.68;9.43;;;;;;;26.04;67.59;98911.34;5072735;28;20131;-51
2023/08/04 05:59:32;;;;;;;11.93;8.93;;;;;;;26.05;67.11;98900.53;5069669;28;20996;-51
2023/08/04 06:01:58;;;;;;;9.57;8.35;;;;;;;26.02;66.98;98884.03;5070304;28;20052;-51
2023/08/04 06:04:24;;;;;;;13.68;9.57;;;;;;;25.97;66.27;98881.06;5070538;28;20044;-53
2023/08/04 06:06:50;;;;;;;9.65;8.60;;;;;;;26.12;66.30;98906.81;5073025;28;20040;-51
2023/08/04 06:09:16;;;;;;;10.27;9.27;;;;;;;26.10;65.94;98894.69;5069018;28;20066;-54
2023/08/04 06:11:42;;;;;;;9.35;8.02;;;;;;;26.30;65.72;98913.81;5070699;28;20147;-50
2023/08/04 06:14:08;;;;;;;12.60;8.90;;;;;;;26.36;65.16;98927.28;5068670;28;20614;-48
2023/08/04 06:16:33;;;;;;;13.13;9.00;;;;;;;26.47;65.04;98920.75;5068871;28;20837;-53
2023/08/04 06:18:59;;;;;;;11.52;9.15;;;;;;;26.69;65.09;98927.19;5070395;28;20036;-52
2023/08/04 06:21:25;;;;;;;12.23;8.85;;;;;;;26.65;64.72;98900.00;5070171;28;20043;-49
2023/08/04 06:23:53;;;;;;;12.38;8.82;;;;;;;26.95;64.50;98925.88;5065522;28;20056;-49
2023/08/04 06:26:19;;;;;;;12.43;8.25;;;;;;;27.19;64.03;98922.25;5079568;28;20097;-50
2023/08/04 06:28:45;;;;;;;11.73;7.88;;;;;;;27.24;63.54;98927.06;5071412;28;20051;-50
2023/08/04 06:31:11;;;;;;;10.30;8.40;;;;;;;27.06;63.30;98937.19;5086961;28;20028;-48
2023/08/04 06:33:37;;;;;;;11.20;8.55;;;;;;;27.16;63.05;98927.13;5068685;28;20496;-48
2023/08/04 06:36:03;;;;;;;9.43;8.32;;;;;;;27.62;61.76;98917.28;5060194;28;20094;-48
2023/08/04 06:38:28;;;;;;;11.43;9.10;;;;;;;28.57;59.74;98932.56;5053382;28;20610;-47
2023/08/04 06:40:54;;;;;;;8.90;8.00;;;;;;;29.69;56.85;98914.25;5067500;28;20036;-48
2023/08/04 06:43:20;;;;;;;10.25;7.95;;;;;;;30.63;54.58;98928.97;5071037;28;20492;-49
2023/08/04 06:45:46;;;;;;;9.13;7.10;;;;;;;31.85;52.43;98927.03;5055963;28;20041;-50
2023/08/04 06:48:12;;;;;;;8.63;7.32;;;;;;;32.03;49.97;98912.97;5050988;28;20044;-50
2023/08/04 06:50:38;;;;;;;9.00;8.10;;;;;;;32.82;48.70;98937.03;5049853;28;20051;-51
2023/08/04 06:53:05;;;;;;;9.20;7.57;;;;;;;33.33;47.25;98942.41;5052408;28;20044;-51
2023/08/04 06:55:31;;;;;;;9.18;7.95;;;;;;;34.13;44.84;98922.69;5068915;28;20070;-54
2023/08/04 06:57:57;;;;;;;8.35;7.47;;;;;;;35.28;43.39;98939.88;5052135;28;20076;-52
2023/08/04 07:00:22;;;;;;;8.20;7.32;;;;;;;35.87;41.90;98933.56;5049566;28;20044;-53
2023/08/04 07:02:49;;;;;;;8.65;7.68;;;;;;;35.13;42.16;98924.03;5068286;28;20103;-47
2023/08/04 07:05:16;;;;;;;9.65;7.53;;;;;;;35.28;41.03;98921.78;5061550;28;20036;-47
2023/08/04 07:07:43;;;;;;;8.38;7.50;;;;;;;33.97;42.61;98926.75;5034912;28;20084;-50
2023/08/04 07:10:10;;;;;;;11.70;7.53;;;;;;;33.37;43.52;98920.19;5049380;28;20069;-48
2023/08/04 07:12:37;;;;;;;14.23;8.32;;;;;;;33.98;43.08;98928.44;5054492;28;20127;-51
2023/08/04 07:15:04;;;;;;;8.65;7.47;;;;;;;35.38;41.12;98928.53;5067000;28;20044;-48
2023/08/04 07:17:32;;;;;;;6.75;5.93;;;;;;;36.39;38.24;98921.00;5049047;28;20045;-52
2023/08/04 07:19:58;;;;;;;7.40;6.60;;;;;;;37.52;36.08;98923.00;5067866;28;20059;-52
2023/08/04 07:22:24;;;;;;;6.15;5.65;;;;;;;38.57;34.86;98930.38;5067522;28;20043;-54
2023/08/04 07:24:53;;;;;;;6.65;6.05;;;;;;;38.17;34.91;98927.88;5069166;28;20036;-53
2023/08/04 07:27:20;;;;;;;8.52;5.85;;;;;;;38.82;33.58;98933.41;5068867;28;20063;-49
2023/08/04 07:29:46;;;;;;;6.50;5.88;;;;;;;38.69;33.23;98939.22;5068225;28;20527;-45
2023/08/04 07:32:12;;;;;;;6.60;5.90;;;;;;;39.20;32.57;98943.38;5052946;28;20076;-47
2023/08/04 07:34:38;;;;;;;6.75;5.50;;;;;;;37.79;33.85;98938.69;5067953;28;20071;-46
2023/08/04 07:37:05;;;;;;;5.03;4.28;;;;;;;36.89;34.03;98931.28;5070439;28;20040;-54
2023/08/04 07:39:30;;;;;;;5.50;4.97;;;;;;;35.20;36.79;98932.09;5062661;28;20052;-50
2023/08/04 07:41:56;;;;;;;7.47;4.85;;;;;;;36.27;36.13;98936.44;5078956;28;20045;-46
2023/08/04 07:44:22;;;;;;;11.45;5.38;;;;;;;35.90;35.67;98933.13;5050767;28;20124;-52
2023/08/04 07:46:48;;;;;;;7.00;5.13;;;;;;;35.15;36.83;98938.16;5068196;28;20047;-51
2023/08/04 07:49:14;;;;;;;8.60;5.22;;;;;;;33.67;39.28;98933.00;5068461;28;20123;-48
2023/08/04 07:51:40;;;;;;;7.25;4.75;;;;;;;32.66;41.13;98932.97;5068398;28;20139;-50
2023/08/04 07:54:06;;;;;;;9.45;4.40;;;;;;;31.85;42.32;98906.34;5085387;28;20131;-46
2023/08/04 07:56:33;;;;;;;9.40;5.20;;;;;;;32.03;42.46;98937.16;5067636;28;20047;-46
2023/08/04 07:58:59;;;;;;;5.57;5.07;;;;;;;32.59;41.25;98932.94;5049944;28;20128;-49
2023/08/04 08:01:25;;;;;;;5.85;4.95;;;;;;;33.65;39.63;98927.03;5083077;28;20071;-50
2023/08/04 08:03:51;;;;;;;7.85;5.18;;;;;;;33.42;39.61;98949.16;5078758;28;20083;-51
2023/08/04 08:06:17;;;;;;;7.03;4.90;;;;;;;33.25;39.64;98939.94;5065219;28;20072;-53
2023/08/04 08:08:46;;;;;;;5.80;5.30;;;;;;;33.60;39.34;98941.97;5053360;28;20072;-51
2023/08/04 08:11:12;;;;;;;5.32;4.82;;;;;;;34.40;38.35;98936.75;5049774;28;20116;-47
2023/08/04 08:13:38;;;;;;;5.90;5.13;;;;;;;35.21;37.39;98940.00;5052590;28;20057;-46
2023/08/04 08:16:13;;;;;;;14.43;5.63;;;;;;;36.63;35.10;98918.28;5058871;28;20110;-51
2023/08/04 08:18:41;;;;;;;11.20;5.75;;;;;;;37.65;33.72;98944.41;5035844;28;20041;-46
2023/08/04 08:21:08;;;;;;;6.57;5.53;;;;;;;36.95;34.10;98934.94;5069082;28;20085;-51
2023/08/04 08:23:34;;;;;;;6.00;5.40;;;;;;;36.63;34.06;98935.38;5054074;28;20128;-51
2023/08/04 08:26:01;;;;;;;5.63;4.95;;;;;;;36.06;35.01;98934.31;5039137;28;20295;-49
2023/08/04 08:28:27;;;;;;;6.30;4.90;;;;;;;36.47;34.37;98931.47;5077888;28;20056;-47
2023/08/04 08:30:53;;;;;;;7.57;5.40;;;;;;;36.13;34.85;98924.16;5068010;28;20671;-47
2023/08/04 08:33:19;;;;;;;9.52;5.82;;;;;;;37.11;33.67;98953.16;5066634;28;20090;-47
2023/08/04 08:35:45;;;;;;;11.80;5.15;;;;;;;38.41;32.29;98952.94;5069340;28;20040;-50
2023/08/04 08:38:11;;;;;;;9.25;5.18;;;;;;;38.69;31.39;98946.53;5066621;28;20036;-46
2023/08/04 08:40:37;;;;;;;8.23;5.32;;;;;;;38.00;31.89;98960.47;5066385;28;20048;-54
2023/08/04 08:43:03;;;;;;;5.65;5.10;;;;;;;37.46;32.33;98934.84;5062980;28;20428;-52
2023/08/04 08:45:29;;;;;;;7.00;4.72;;;;;;;37.25;32.36;98951.81;5066318;28;20579;-53
2023/08/04 08:47:56;;;;;;;8.13;4.85;;;;;;;36.54;33.25;98950.28;5068262;28;20043;-50
2023/08/04 08:50:23;;;;;;;4.95;4.53;;;;;;;35.47;34.71;98954.16;5068612;28;20032;-48
2023/08/04 08:53:11;;;;;;;5.43;4.23;;;;;;;33.86;36.99;98957.19;5066105;28;20056;-47
2023/08/04 08:55:38;;;;;;;7.97;5.00;;;;;;;32.66;39.08;98957.19;5063187;28;20385;-51
2023/08/04 08:58:04;;;;;;;6.85;5.25;;;;;;;32.18;40.11;98949.38;5066870;28;20126;-49
2023/08/04 09:00:30;;;;;;;6.43;4.43;;;;;;;32.26;39.78;98954.53;5068045;28;20090;-48
2023/08/04 09:02:57;;;;;;;6.25;4.70;;;;;;;32.54;39.10;98967.75;5065253;28;20466;-51
2023/08/04 09:05:23;;;;;;;7.53;4.72;;;;;;;34.16;36.63;98967.28;5068653;28;20401;-52
2023/08/04 09:07:50;;;;;;;6.10;4.43;;;;;;;35.81;33.76;98952.63;5067408;28;20040;-47
2023/08/04 09:10:16;;;;;;;5.75;4.32;;;;;;;37.42;31.08;98963.53;5068610;28;20071;-51
2023/08/04 09:12:44;;;;;;;4.57;4.10;;;;;;;36.99;30.22;98963.19;5053684;28;20064;-50
2023/08/04 09:15:10;;;;;;;5.55;4.30;;;;;;;36.01;31.14;98940.41;5050992;28;20051;-50
2023/08/04 09:17:38;;;;;;;6.20;4.30;;;;;;;35.42;32.04;98946.75;5067489;28;20044;-52
2023/08/04 09:20:06;;;;;;;5.55;3.70;;;;;;;35.26;31.82;98952.81;5069984;28;20044;-48
2023/08/04 09:22:38;;;;;;;3.85;3.45;;;;;;;35.31;31.39;98952.13;5063171;28;20036;-49
2023/08/04 09:25:05;;;;;;;9.13;3.92;;;;;;;35.75;31.16;98948.97;5085144;28;20044;-51
2023/08/04 09:27:43;;;;;;;4.40;4.00;;;;;;;37.66;28.40;98948.78;5067687;28;20037;-49
2023/08/04 09:30:10;;;;;;;5.28;4.05;;;;;;;38.80;26.97;98976.31;5049851;28;20037;-48
2023/08/04 09:32:50;;;;;;;5.60;3.57;;;;;;;38.28;26.76;98969.59;5060529;28;20163;-49
2023/08/04 09:35:16;;;;;;;3.95;3.47;;;;;;;38.04;26.52;98931.78;5075942;28;20080;-51
2023/08/04 09:37:42;;;;;;;4.85;3.53;;;;;;;38.12;25.96;98950.34;5061901;28;20068;-50
2023/08/04 09:40:19;;;;;;;4.15;3.60;;;;;;;39.66;24.77;98962.91;5065700;28;20049;-50
2023/08/04 09:42:47;;;;;;;5.10;3.80;;;;;;;40.26;23.56;98954.41;5072930;28;20487;-50
2023/08/04 09:45:14;;;;;;;4.20;3.80;;;;;;;41.32;23.40;98965.84;5052551;28;20432;-46
2023/08/04 09:47:46;;;;;;;4.70;3.70;;;;;;;40.69;22.83;98953.31;5069682;28;20044;-49
2023/08/04 09:50:12;;;;;;;5.63;3.60;;;;;;;40.79;22.80;98960.72;5069690;28;20111;-53
2023/08/04 09:52:37;;;;;;;3.78;3.25;;;;;;;41.07;22.12;98943.94;5065314;28;20062;-50
2023/08/04 09:55:08;;;;;;;3.55;3.25;;;;;;;41.11;22.09;98968.78;5065163;28;20044;-49
2023/08/04 09:57:34;;;;;;;3.58;3.13;;;;;;;40.86;21.46;98964.03;5067710;28;20036;-46
2023/08/04 10:00:00;;;;;;;3.72;3.42;;;;;;;40.36;22.14;98950.94;5068462;28;20041;-48
2023/08/04 10:02:27;;;;;;;4.07;3.47;;;;;;;40.84;21.38;98958.00;5068690;28;20036;-48
2023/08/04 10:04:54;;;;;;;3.70;3.30;;;;;;;40.66;21.72;98953.88;5045138;28;20048;-48
2023/08/04 10:07:20;;;;;;;3.97;3.50;;;;;;;40.43;22.13;98951.53;5064271;28;20127;-51
2023/08/04 10:09:49;;;;;;;3.97;3.58;;;;;;;41.12;21.71;98957.59;5068757;28;20629;-48
2023/08/04 10:12:16;;;;;;;5.10;3.70;;;;;;;41.79;20.85;98970.28;5064576;28;20072;-47
2023/08/04 10:14:43;;;;;;;5.75;3.78;;;;;;;41.36;21.23;98947.81;5068850;28;20179;-49
2023/08/04 10:17:09;;;;;;;3.50;3.20;;;;;;;41.19;20.72;98969.09;5066879;28;20024;-49
2023/08/04 10:19:35;;;;;;;4.05;3.60;;;;;;;40.27;21.34;98950.63;5061601;28;20048;-50
2023/08/04 10:22:09;;;;;;;3.50;3.20;;;;;;;40.46;21.80;98957.25;5063798;28;20041;-51
2023/08/04 10:24:37;;;;;;;4.10;3.80;;;;;;;40.95;21.19;98962.41;5055107;28;20040;-47
2023/08/04 10:27:14;;;;;;;3.80;3.45;;;;;;;41.14;20.78;98962.81;5062728;28;20046;-47
2023/08/04 10:29:40;;;;;;;;;;;;;;;42.01;20.64;98968.13;5065011;28;20563;-48
2023/08/04 10:32:09;;;;;;;3.40;3.10;;;;;;;42.07;19.61;98941.63;5064180;28;19916;-44
2023/08/04 10:34:47;;;;;;;4.47;3.45;;;;;;;42.34;19.97;98969.47;5053347;28;20036;-45
2023/08/04 10:37:14;;;;;;;;;;;;;;;41.61;20.80;98965.38;5053125;28;20048;-47
2023/08/04 10:39:45;;;;;;;6.75;3.58;;;;;;;41.94;20.78;98966.75;5068542;28;19917;-46
2023/08/04 10:42:28;;;;;;;4.45;3.47;;;;;;;42.34;20.11;98965.91;5065941;28;20631;-45
2023/08/04 10:45:07;;;;;;;3.58;3.10;;;;;;;42.92;20.13;98965.16;5069598;28;20747;-47
2023/08/04 10:47:45;;;;;;;5.72;3.80;;;;;;;43.65;19.61;98959.88;5069288;28;20122;-46
2023/08/04 10:50:12;;;;;;;3.55;3.25;;;;;;;44.47;18.99;98979.97;5078017;28;20040;-44
2023/08/04 10:52:39;;;;;;;5.32;3.17;;;;;;;43.03;19.81;98966.75;5067731;28;20052;-50
2023/08/04 10:55:06;;;;;;;;;;;;;;;41.52;20.84;98958.78;5053083;28;20147;-48
2023/08/04 10:57:33;;;;;;;3.40;3.10;;;;;;;39.88;22.62;98949.22;5058096;28;19923;-48
2023/08/04 11:00:00;;;;;;;2.78;2.58;;;;;;;38.68;24.14;98947.63;5069740;28;20039;-42
2023/08/04 11:02:26;;;;;;;3.47;3.17;;;;;;;38.61;24.37;98931.50;5073498;28;20053;-46
2023/08/04 11:04:53;;;;;;;3.67;3.25;;;;;;;39.71;23.22;98935.72;5051292;28;20688;-46
2023/08/04 11:07:20;;;;;;;3.50;3.20;;;;;;;40.46;23.24;98935.44;5067566;28;20040;-44
2023/08/04 11:09:47;;;;;;;3.85;3.28;;;;;;;39.60;23.74;98934.00;5066165;28;20110;-50
2023/08/04 11:12:14;;;;;;;3.80;3.23;;;;;;;38.19;24.96;98909.44;5066671;28;20032;-46
2023/08/04 11:14:40;;;;;;;3.80;3.40;;;;;;;37.97;25.73;98935.69;5070378;28;20040;-44
2023/08/04 11:17:24;;;;;;;3.97;3.67;;;;;;;39.77;24.52;98927.38;5079502;28;20067;-47
2023/08/04 11:19:50;;;;;;;4.40;3.13;;;;;;;40.83;23.24;98946.28;5065805;28;20709;-46
2023/08/04 11:22:17;;;;;;;3.60;3.35;;;;;;;40.15;23.51;98948.06;5069147;28;20050;-48
2023/08/04 11:24:44;;;;;;;3.70;3.40;;;;;;;40.62;23.54;98950.00;5050228;28;20047;-45